createdAt,value
2023-05-23T00:00:53.292Z,23.10
2023-05-23T00:03:25.363Z,26.27
2023-05-23T00:05:55.162Z,26.30
2023-05-23T00:08:24.673Z,26.60
2023-05-23T00:10:54.620Z,25.80
2023-05-23T00:13:24.564Z,25.70
2023-05-23T00:15:53.725Z,25.30
2023-05-23T00:18:25.996Z,26.70
2023-05-23T00:20:55.415Z,26.92
2023-05-23T00:23:26.543Z,26.52
2023-05-23T00:25:56.413Z,25.40
2023-05-23T00:28:27.081Z,25.85
2023-05-23T00:30:56.509Z,24.88
2023-05-23T00:33:26.388Z,24.35
2023-05-23T00:35:55.659Z,24.50
2023-05-23T00:38:24.923Z,23.92
2023-05-23T00:40:54.386Z,24.75
2023-05-23T00:43:24.021Z,25.08
2023-05-23T00:45:54.069Z,23.90
2023-05-23T00:48:23.732Z,26.45
2023-05-23T00:50:53.414Z,23.70
2023-05-23T00:53:23.375Z,25.58
2023-05-23T00:55:53.219Z,27.88
2023-05-23T00:58:22.887Z,28.15
2023-05-23T01:00:55.663Z,29.65
2023-05-23T01:03:29.781Z,29.33
2023-05-23T01:05:59.329Z,30.67
2023-05-23T01:08:30.924Z,31.67
2023-05-23T01:11:06.382Z,29.95
2023-05-23T01:13:44.399Z,26.67
2023-05-23T01:16:14.069Z,26.85
2023-05-23T01:18:55.497Z,28.13
2023-05-23T01:21:26.948Z,27.70
2023-05-23T01:24:05.042Z,27.65
2023-05-23T01:26:46.982Z,29.13
2023-05-23T01:29:24.150Z,26.05
2023-05-23T01:31:57.339Z,26.23
2023-05-23T01:36:58.945Z,24.52
2023-05-23T01:39:28.290Z,24.50
2023-05-23T01:41:57.838Z,26.55
2023-05-23T01:44:28.189Z,27.35
2023-05-23T01:46:58.072Z,26.75
2023-05-23T01:49:29.226Z,26.70
2023-05-23T01:52:03.259Z,27.13
2023-05-23T01:54:33.896Z,26.83
2023-05-23T01:57:04.554Z,25.10
2023-05-23T01:59:34.785Z,25.30
2023-05-23T02:02:04.461Z,25.27
2023-05-23T02:04:34.106Z,25.17
2023-05-23T02:07:03.449Z,23.98
2023-05-23T02:09:33.453Z,25.92
2023-05-23T02:12:02.553Z,24.77
2023-05-23T02:14:31.934Z,23.88
2023-05-23T02:17:01.762Z,25.40
2023-05-23T02:19:31.635Z,25.38
2023-05-23T02:22:01.418Z,25.42
2023-05-23T02:24:30.496Z,26.48
2023-05-23T02:26:59.730Z,26.33
2023-05-23T02:29:28.924Z,25.75
2023-05-23T02:31:58.457Z,24.60
2023-05-23T02:34:27.843Z,24.15
2023-05-23T02:36:57.145Z,24.35
2023-05-23T02:39:26.399Z,24.77
2023-05-23T02:41:56.624Z,23.30
2023-05-23T02:44:27.908Z,25.02
2023-05-23T02:46:57.262Z,23.77
2023-05-23T02:49:26.731Z,22.48
2023-05-23T02:51:56.279Z,24.15
2023-05-23T02:54:25.511Z,22.75
2023-05-23T02:56:55.893Z,24.45
2023-05-23T02:59:25.390Z,23.73
2023-05-23T03:01:54.718Z,24.67
2023-05-23T03:04:25.024Z,25.60
2023-05-23T03:06:55.620Z,26.55
2023-05-23T03:09:24.949Z,24.85
2023-05-23T03:11:54.805Z,25.30
2023-05-23T03:14:24.921Z,26.33
2023-05-23T03:16:54.032Z,24.98
2023-05-23T03:19:23.659Z,28.17
2023-05-23T03:21:53.700Z,30.35
2023-05-23T03:24:23.046Z,30.70
2023-05-23T03:26:52.632Z,29.23
2023-05-23T03:29:22.249Z,28.25
2023-05-23T03:31:51.690Z,25.50
2023-05-23T03:34:21.634Z,26.75
2023-05-23T03:36:51.040Z,27.80
2023-05-23T03:39:20.433Z,26.83
2023-05-23T03:41:50.088Z,25.20
2023-05-23T03:44:19.816Z,26.15
2023-05-23T03:46:49.022Z,25.60
2023-05-23T03:49:19.814Z,25.85
2023-05-23T03:51:49.740Z,25.15
2023-05-23T03:54:20.333Z,25.20
2023-05-23T03:56:49.719Z,26.38
2023-05-23T03:59:19.697Z,25.52
2023-05-23T04:01:49.338Z,26.77
2023-05-23T04:04:19.297Z,27.17
2023-05-23T04:06:49.174Z,28.83
2023-05-23T04:09:19.009Z,28.50
2023-05-23T04:11:50.255Z,27.90
2023-05-23T04:14:23.505Z,29.13
2023-05-23T04:16:53.804Z,29.45
2023-05-23T04:19:23.511Z,28.85
2023-05-23T04:21:54.580Z,29.00
2023-05-23T04:24:24.900Z,28.48
2023-05-23T04:26:57.479Z,26.65
2023-05-23T04:29:27.612Z,27.20
2023-05-23T04:31:57.496Z,20.25
2023-05-23T04:34:27.172Z,23.50
2023-05-23T04:36:56.606Z,25.08
2023-05-23T04:39:26.800Z,25.38
2023-05-23T04:42:15.168Z,23.67
2023-05-23T04:45:17.111Z,20.77
2023-05-23T04:48:10.111Z,18.65
2023-05-23T04:50:49.139Z,14.10
2023-05-23T04:53:20.390Z,18.20
2023-05-23T04:55:50.196Z,20.02
2023-05-23T04:58:22.481Z,21.10
2023-05-23T05:00:52.166Z,19.98
2023-05-23T05:03:21.553Z,17.95
2023-05-23T05:05:51.017Z,17.90
2023-05-23T05:08:23.282Z,16.58
2023-05-23T05:10:53.259Z,14.57
2023-05-23T05:13:23.220Z,14.73
2023-05-23T05:15:55.534Z,14.45
2023-05-23T05:18:30.137Z,13.73
2023-05-23T05:21:00.829Z,14.85
2023-05-23T05:23:30.053Z,13.38
2023-05-23T05:26:02.072Z,14.02
2023-05-23T05:28:31.343Z,12.82
2023-05-23T05:31:01.498Z,13.75
2023-05-23T05:33:36.951Z,12.52
2023-05-23T05:36:11.371Z,12.68
2023-05-23T05:38:40.902Z,12.93
2023-05-23T05:41:10.329Z,12.38
2023-05-23T05:43:44.335Z,13.00
2023-05-23T05:46:14.004Z,13.00
2023-05-23T05:48:43.903Z,12.82
2023-05-23T05:51:15.059Z,12.18
2023-05-23T05:53:45.202Z,13.77
2023-05-23T05:56:15.069Z,13.57
2023-05-23T05:58:44.692Z,13.88
2023-05-23T06:01:16.297Z,13.68
2023-05-23T06:03:46.041Z,12.70
2023-05-23T06:06:15.462Z,12.50
2023-05-23T06:08:46.204Z,12.45
2023-05-23T06:11:19.220Z,13.30
2023-05-23T06:13:48.833Z,13.65
2023-05-23T06:16:18.303Z,12.73
2023-05-23T06:18:47.967Z,13.23
2023-05-23T06:21:17.801Z,13.88
2023-05-23T06:23:51.393Z,12.98
2023-05-23T06:26:21.051Z,13.07
2023-05-23T06:28:50.742Z,13.05
2023-05-23T06:31:20.098Z,13.52
2023-05-23T06:33:49.401Z,12.60
2023-05-23T06:36:19.648Z,11.48
2023-05-23T06:38:50.511Z,11.50
2023-05-23T06:41:20.648Z,12.25
2023-05-23T06:43:49.889Z,11.93
2023-05-23T06:46:26.319Z,11.25
2023-05-23T06:49:06.578Z,11.38
2023-05-23T06:51:45.218Z,10.73
2023-05-23T06:54:14.631Z,12.85
2023-05-23T06:56:44.287Z,10.50
2023-05-23T06:59:13.609Z,10.30
2023-05-23T07:01:42.787Z,9.77
2023-05-23T07:04:13.615Z,9.50
2023-05-23T07:06:43.395Z,10.00
2023-05-23T07:09:14.307Z,10.00
2023-05-23T07:11:43.612Z,9.25
2023-05-23T07:14:13.462Z,8.35
2023-05-23T07:16:44.594Z,8.13
2023-05-23T07:19:14.664Z,9.18
2023-05-23T07:21:47.938Z,8.85
2023-05-23T07:24:19.894Z,9.30
2023-05-23T07:26:49.795Z,9.80
2023-05-23T07:29:20.032Z,9.18
2023-05-23T07:31:51.523Z,9.90
2023-05-23T07:34:22.520Z,9.23
2023-05-23T07:36:56.584Z,9.43
2023-05-23T07:39:29.521Z,9.43
2023-05-23T07:42:01.990Z,9.38
2023-05-23T07:44:31.750Z,10.15
2023-05-23T07:47:01.125Z,8.32
2023-05-23T07:49:31.472Z,8.85
2023-05-23T07:52:00.822Z,7.97
2023-05-23T07:54:30.740Z,6.82
2023-05-23T07:57:01.723Z,8.00
2023-05-23T07:59:31.591Z,7.63
2023-05-23T08:02:01.223Z,7.45
2023-05-23T08:04:31.617Z,8.05
2023-05-23T08:07:05.662Z,8.82
2023-05-23T08:09:58.586Z,7.90
2023-05-23T08:12:28.553Z,8.75
2023-05-23T08:15:09.613Z,8.68
2023-05-23T08:17:44.850Z,9.23
2023-05-23T08:20:18.095Z,9.57
2023-05-23T08:22:48.286Z,10.00
2023-05-23T08:25:17.851Z,9.98
2023-05-23T08:27:47.140Z,8.68
2023-05-23T08:30:39.321Z,7.40
2023-05-23T08:33:09.334Z,8.48
2023-05-23T08:35:43.073Z,7.30
2023-05-23T08:41:02.821Z,6.85
2023-05-23T08:43:33.551Z,6.40
2023-05-23T08:46:05.963Z,7.22
2023-05-23T08:48:42.486Z,6.15
2023-05-23T08:51:14.767Z,5.93
2023-05-23T08:58:50.978Z,7.13
2023-05-23T09:01:23.864Z,6.25
2023-05-23T09:04:01.470Z,5.80
2023-05-23T09:06:38.710Z,5.90
2023-05-23T09:09:08.585Z,5.53
2023-05-23T09:11:38.733Z,6.78
2023-05-23T09:14:11.623Z,5.53
2023-05-23T09:16:41.976Z,5.32
2023-05-23T09:19:16.292Z,5.40
2023-05-23T09:21:55.200Z,5.07
2023-05-23T09:24:39.754Z,4.55
2023-05-23T09:27:11.097Z,5.17
2023-05-23T09:29:44.671Z,4.85
2023-05-23T09:32:18.259Z,5.20
2023-05-23T09:35:03.466Z,5.20
2023-05-23T09:37:34.141Z,5.75
2023-05-23T09:40:12.762Z,4.50
2023-05-23T09:42:48.896Z,4.75
2023-05-23T09:45:20.244Z,5.15
2023-05-23T09:47:55.853Z,5.47
2023-05-23T09:50:37.058Z,5.03
2023-05-23T09:53:07.085Z,6.40
2023-05-23T09:55:38.121Z,4.90
2023-05-23T09:58:09.703Z,4.97
2023-05-23T10:00:40.096Z,5.10
2023-05-23T10:03:18.519Z,4.75
2023-05-23T10:06:02.789Z,5.65
2023-05-23T10:08:37.492Z,4.57
2023-05-23T10:11:15.935Z,5.07
2023-05-23T10:13:47.283Z,5.95
2023-05-23T10:16:42.048Z,5.95
2023-05-23T10:19:22.097Z,5.45
2023-05-23T10:21:56.845Z,5.75
2023-05-23T10:24:27.676Z,6.20
2023-05-23T10:26:57.861Z,5.93
2023-05-23T10:29:28.083Z,5.90
2023-05-23T10:31:59.413Z,9.57
2023-05-23T10:34:32.623Z,7.75
2023-05-23T10:37:09.598Z,6.50
2023-05-23T10:40:00.806Z,6.57
2023-05-23T10:42:47.312Z,7.75
2023-05-23T10:45:18.879Z,6.50
2023-05-23T10:47:54.301Z,5.57
2023-05-23T10:50:35.064Z,5.15
2023-05-23T10:53:07.486Z,5.02
2023-05-23T10:55:38.627Z,4.38
2023-05-23T10:58:13.436Z,5.60
2023-05-23T11:01:02.558Z,6.20
2023-05-23T11:03:39.627Z,5.05
2023-05-23T11:06:29.277Z,4.85
2023-05-23T11:09:10.939Z,5.53
2023-05-23T11:12:04.583Z,5.35
2023-05-23T11:14:56.015Z,5.28
2023-05-23T11:17:55.267Z,4.65
2023-05-23T11:20:29.815Z,4.82
2023-05-23T11:23:03.947Z,4.00
2023-05-23T11:25:46.241Z,4.50
2023-05-23T11:28:16.463Z,4.27
2023-05-23T11:30:50.894Z,4.60
2023-05-23T11:33:21.234Z,4.28
2023-05-23T11:35:52.996Z,4.90
2023-05-23T11:38:22.837Z,4.47
2023-05-23T11:40:51.981Z,4.97
2023-05-23T11:43:21.775Z,3.97
2023-05-23T11:45:51.169Z,4.47
2023-05-23T11:48:20.610Z,3.60
2023-05-23T11:50:53.757Z,4.45
2023-05-23T11:53:26.410Z,4.75
2023-05-23T11:55:59.443Z,4.35
2023-05-23T12:01:06.566Z,4.18
2023-05-23T12:03:46.261Z,4.78
2023-05-23T12:06:20.886Z,3.72
2023-05-23T12:08:50.838Z,3.80
2023-05-23T12:11:20.041Z,4.30
2023-05-23T12:13:49.613Z,3.47
2023-05-23T12:16:18.692Z,3.83
2023-05-23T12:18:49.105Z,4.35
2023-05-23T12:21:18.545Z,4.10
2023-05-23T12:23:48.665Z,5.05
2023-05-23T12:26:18.590Z,3.80
2023-05-23T12:28:48.112Z,4.47
2023-05-23T12:31:23.837Z,3.97
2023-05-23T12:33:55.195Z,3.70
2023-05-23T12:36:29.861Z,4.53
2023-05-23T12:39:05.615Z,4.70
2023-05-23T12:41:35.587Z,5.10
2023-05-23T12:44:06.025Z,4.38
2023-05-23T12:46:35.732Z,4.47
2023-05-23T12:49:05.276Z,3.58
2023-05-23T12:51:34.827Z,3.83
2023-05-23T12:54:04.480Z,4.43
2023-05-23T12:56:34.134Z,4.78
2023-05-23T12:59:05.290Z,4.78
2023-05-23T13:01:36.361Z,4.43
2023-05-23T13:04:06.062Z,4.72
2023-05-23T13:06:35.541Z,5.03
2023-05-23T13:09:05.307Z,4.32
2023-05-23T13:11:34.641Z,4.57
2023-05-23T13:14:13.833Z,4.90
2023-05-23T13:16:46.756Z,6.00
2023-05-23T13:19:16.467Z,4.60
2023-05-23T13:21:47.932Z,5.75
2023-05-23T13:24:19.732Z,4.65
2023-05-23T13:26:50.142Z,4.80
2023-05-23T13:29:19.389Z,5.15
2023-05-23T13:31:48.903Z,4.43
2023-05-23T13:34:18.125Z,4.90
2023-05-23T13:36:47.471Z,5.38
2023-05-23T13:39:18.200Z,6.40
2023-05-23T13:41:49.774Z,4.22
2023-05-23T13:44:19.285Z,5.38
2023-05-23T13:46:48.716Z,5.15
2023-05-23T13:49:18.138Z,4.93
2023-05-23T13:51:48.081Z,5.10
2023-05-23T13:54:17.987Z,5.88
2023-05-23T13:56:47.590Z,5.60
2023-05-23T13:59:22.138Z,7.90
2023-05-23T14:01:51.869Z,5.45
2023-05-23T14:04:21.788Z,5.57
2023-05-23T14:06:52.091Z,5.60
2023-05-23T14:09:23.338Z,6.85
2023-05-23T14:11:53.404Z,5.15
2023-05-23T14:14:22.624Z,5.53
2023-05-23T14:16:55.256Z,5.80
2023-05-23T14:19:24.599Z,6.10
2023-05-23T14:21:54.192Z,5.75
2023-05-23T14:24:23.526Z,5.53
2023-05-23T14:26:53.204Z,5.60
2023-05-23T14:29:23.213Z,6.20
2023-05-23T14:31:53.432Z,5.53
2023-05-23T14:34:23.151Z,5.25
2023-05-23T14:36:52.648Z,5.03
2023-05-23T14:39:22.861Z,5.80
2023-05-23T14:41:53.842Z,5.40
2023-05-23T14:44:23.192Z,7.13
2023-05-23T14:46:52.649Z,5.50
2023-05-23T14:49:22.098Z,4.97
2023-05-23T14:51:52.028Z,5.97
2023-05-23T14:54:21.770Z,5.25
2023-05-23T14:56:53.176Z,5.70
2023-05-23T14:59:23.217Z,5.18
2023-05-23T15:01:53.161Z,5.28
2023-05-23T15:04:27.849Z,4.95
2023-05-23T15:06:57.190Z,4.60
2023-05-23T15:09:28.638Z,5.60
2023-05-23T15:11:58.294Z,4.57
2023-05-23T15:14:30.867Z,5.70
2023-05-23T15:17:08.834Z,5.88
2023-05-23T15:19:40.316Z,6.65
2023-05-23T15:22:18.362Z,6.28
2023-05-23T15:24:52.171Z,7.22
2023-05-23T15:27:23.331Z,6.65
2023-05-23T15:29:52.881Z,6.03
2023-05-23T15:32:22.332Z,6.43
2023-05-23T15:34:52.265Z,6.43
2023-05-23T15:37:21.496Z,5.13
2023-05-23T15:39:51.743Z,5.45
2023-05-23T15:42:21.150Z,7.10
2023-05-23T15:44:50.832Z,6.00
2023-05-23T15:47:21.712Z,6.45
2023-05-23T15:49:51.783Z,6.32
2023-05-23T15:52:21.182Z,6.93
2023-05-23T15:54:50.778Z,6.78
2023-05-23T15:57:20.170Z,6.93
2023-05-23T15:59:49.868Z,6.25
2023-05-23T16:02:20.497Z,5.57
2023-05-23T16:04:50.222Z,5.60
2023-05-23T16:07:19.246Z,6.20
2023-05-23T16:09:48.624Z,5.93
2023-05-23T16:12:18.709Z,5.80
2023-05-23T16:14:48.167Z,4.97
2023-05-23T16:17:17.868Z,5.95
2023-05-23T16:19:47.877Z,5.75
2023-05-23T16:22:17.800Z,6.68
2023-05-23T16:24:47.976Z,6.03
2023-05-23T16:27:17.491Z,5.07
2023-05-23T16:29:47.610Z,5.72
2023-05-23T16:32:18.366Z,6.50
2023-05-23T16:34:54.584Z,6.20
2023-05-23T16:37:25.244Z,6.35
2023-05-23T16:39:54.780Z,7.97
2023-05-23T16:42:24.014Z,7.05
2023-05-23T16:44:53.603Z,6.53
2023-05-23T16:47:23.806Z,7.30
2023-05-23T16:49:58.585Z,6.82
2023-05-23T16:52:27.934Z,6.65
2023-05-23T16:54:57.272Z,7.07
2023-05-23T16:57:27.168Z,6.53
2023-05-23T16:59:56.413Z,6.93
2023-05-23T17:02:26.513Z,6.35
2023-05-23T17:04:56.834Z,7.93
2023-05-23T17:07:26.370Z,8.18
2023-05-23T17:09:55.898Z,7.93
2023-05-23T17:12:25.115Z,7.93
2023-05-23T17:14:54.618Z,8.38
2023-05-23T17:17:24.070Z,9.20
2023-05-23T17:19:53.549Z,8.57
2023-05-23T17:22:23.595Z,9.23
2023-05-23T17:24:53.687Z,10.13
2023-05-23T17:27:23.885Z,10.50
2023-05-23T17:29:53.425Z,10.05
2023-05-23T17:32:23.687Z,10.68
2023-05-23T17:34:53.523Z,10.23
2023-05-23T17:37:22.677Z,12.45
2023-05-23T17:39:53.603Z,12.75
2023-05-23T17:42:24.896Z,12.75
2023-05-23T17:44:55.398Z,11.88
2023-05-23T17:47:25.893Z,11.23
2023-05-23T17:49:55.982Z,11.60
2023-05-23T17:52:25.841Z,11.43
2023-05-23T17:54:58.123Z,9.98
2023-05-23T17:57:29.032Z,10.32
2023-05-23T18:00:55.964Z,9.60
2023-05-23T18:03:44.497Z,9.02
2023-05-23T18:06:14.114Z,8.65
2023-05-23T18:08:43.440Z,8.35
2023-05-23T18:11:13.261Z,8.00
2023-05-23T18:13:42.807Z,8.60
2023-05-23T18:16:12.199Z,9.02
2023-05-23T18:18:42.264Z,8.93
2023-05-23T18:21:12.258Z,8.38
2023-05-23T18:23:41.985Z,9.18
2023-05-23T18:26:12.586Z,9.73
2023-05-23T18:28:42.629Z,9.32
2023-05-23T18:31:12.558Z,8.68
2023-05-23T18:33:42.787Z,8.90
2023-05-23T18:36:12.579Z,8.10
2023-05-23T18:38:42.797Z,8.20
2023-05-23T18:41:14.911Z,10.18
2023-05-23T18:43:44.719Z,10.48
2023-05-23T18:46:14.106Z,9.38
2023-05-23T18:48:46.386Z,12.10
2023-05-23T18:51:16.763Z,10.80
2023-05-23T18:53:46.379Z,11.45
2023-05-23T18:56:17.192Z,10.90
2023-05-23T18:58:47.114Z,10.48
2023-05-23T19:01:17.706Z,9.70
2023-05-23T19:03:47.468Z,9.52
2023-05-23T19:06:17.035Z,12.43
2023-05-23T19:08:47.315Z,19.10
2023-05-23T19:11:16.812Z,19.10
2023-05-23T19:13:46.475Z,19.95
2023-05-23T19:16:16.548Z,18.55
2023-05-23T19:18:46.352Z,15.45
2023-05-23T19:21:15.825Z,16.55
2023-05-23T19:23:45.030Z,14.15
2023-05-23T19:26:14.763Z,16.10
2023-05-23T19:28:44.023Z,12.20
2023-05-23T19:31:13.829Z,11.60
2023-05-23T19:33:43.750Z,13.77
2023-05-23T19:36:13.393Z,9.55
2023-05-23T19:38:42.655Z,11.88
2023-05-23T19:41:12.944Z,13.77
2023-05-23T19:43:42.132Z,11.02
2023-05-23T19:46:11.536Z,10.98
2023-05-23T19:48:40.981Z,9.23
2023-05-23T19:51:10.761Z,8.63
2023-05-23T19:53:40.135Z,8.52
2023-05-23T19:56:09.847Z,7.40
2023-05-23T19:58:39.350Z,6.00
2023-05-23T20:01:09.080Z,5.95
2023-05-23T20:03:38.620Z,4.97
2023-05-23T20:06:07.850Z,5.00
2023-05-23T20:08:37.793Z,5.45
2023-05-23T20:11:07.097Z,5.22
2023-05-23T20:13:36.677Z,6.32
2023-05-23T20:16:06.015Z,6.70
2023-05-23T20:18:35.955Z,7.00
2023-05-23T20:21:05.553Z,6.45
2023-05-23T20:23:34.968Z,7.10
2023-05-23T20:26:04.329Z,5.90
2023-05-23T20:28:34.034Z,6.05
2023-05-23T20:31:03.584Z,5.20
2023-05-23T20:33:32.809Z,4.40
2023-05-23T20:36:02.908Z,4.68
2023-05-23T20:38:34.990Z,4.95
2023-05-23T20:41:07.797Z,4.07
2023-05-23T20:43:38.238Z,3.70
2023-05-23T20:46:10.301Z,6.85
2023-05-23T20:48:39.762Z,6.03
2023-05-23T20:51:09.857Z,6.03
2023-05-23T20:53:39.452Z,5.53
2023-05-23T20:56:11.419Z,6.72
2023-05-23T20:58:41.997Z,5.40
2023-05-23T21:01:11.250Z,3.55
2023-05-23T21:03:40.600Z,3.38
2023-05-23T21:06:10.265Z,2.75
2023-05-23T21:08:39.560Z,2.30
2023-05-23T21:11:08.991Z,3.30
2023-05-23T21:13:39.911Z,4.10
2023-05-23T21:16:10.067Z,4.22
2023-05-23T21:18:39.676Z,4.55
2023-05-23T21:21:08.693Z,5.70
2023-05-23T21:23:38.073Z,4.50
2023-05-23T21:26:07.742Z,3.28
2023-05-23T21:28:37.424Z,2.83
2023-05-23T21:31:07.430Z,2.95
2023-05-23T21:33:36.737Z,3.00
2023-05-23T21:36:06.013Z,3.67
2023-05-23T21:38:38.628Z,3.03
2023-05-23T21:41:08.710Z,2.65
2023-05-23T21:43:38.599Z,3.50
2023-05-23T21:46:07.676Z,3.75
2023-05-23T21:48:37.149Z,3.72
2023-05-23T21:51:06.395Z,3.45
2023-05-23T21:53:36.260Z,3.28
2023-05-23T21:56:05.732Z,3.05
2023-05-23T21:58:35.091Z,2.97
2023-05-23T22:01:04.093Z,3.35
2023-05-23T22:03:33.640Z,2.90
2023-05-23T22:06:03.008Z,2.58
2023-05-23T22:08:34.329Z,2.60
2023-05-23T22:11:05.417Z,2.38
2023-05-23T22:13:34.901Z,2.00
2023-05-23T22:16:06.321Z,2.60
2023-05-23T22:21:11.045Z,2.40
2023-05-23T22:23:40.217Z,2.70
2023-05-23T22:26:09.706Z,2.78
2023-05-23T22:28:39.114Z,2.15
2023-05-23T22:31:10.386Z,1.90
2023-05-23T22:36:11.893Z,2.05
2023-05-23T22:38:40.987Z,2.28
2023-05-23T22:41:10.302Z,2.22
2023-05-23T22:43:40.261Z,2.33
2023-05-23T22:46:14.929Z,2.20
2023-05-23T22:48:46.163Z,2.53
2023-05-23T22:51:15.686Z,2.30
2023-05-23T22:53:45.030Z,2.05
2023-05-23T22:56:14.506Z,1.90
2023-05-23T22:58:51.069Z,2.20
2023-05-23T23:01:20.700Z,3.15
2023-05-23T23:03:49.979Z,2.30
2023-05-23T23:06:22.134Z,2.78
2023-05-23T23:08:51.754Z,3.03
2023-05-23T23:11:22.087Z,2.78
2023-05-23T23:13:51.373Z,5.20
2023-05-23T23:16:20.864Z,2.80
2023-05-23T23:18:51.666Z,2.70
2023-05-23T23:21:20.920Z,2.45
2023-05-23T23:23:50.141Z,2.97
2023-05-23T23:26:19.741Z,2.33
2023-05-23T23:28:48.792Z,2.00
2023-05-23T23:31:20.135Z,2.75
2023-05-23T23:33:49.818Z,3.17
2023-05-23T23:36:19.069Z,3.03
2023-05-23T23:38:48.496Z,2.63
2023-05-23T23:41:19.275Z,2.67
2023-05-23T23:43:48.834Z,3.17
2023-05-23T23:46:20.134Z,2.80
2023-05-23T23:48:49.635Z,3.25
2023-05-23T23:51:18.975Z,2.97
2023-05-23T23:53:49.799Z,3.13
2023-05-23T23:56:21.147Z,2.90
2023-05-23T23:58:51.111Z,3.15
